Capitol Logistics 348




KMHT
Manchester Airport
Manchester, New Hampshire
KBWI
Baltimore/Washington International Thurgood Marshall Airport
Baltimore, Maryland

Activity Log

Date Flight Route Aircraft Duration
04/15/2021 CPX348 PPORT3 NELIE Q75 MXE V378 NUGGY TRISH3 B752 1h 26m
04/11/2021 CPX348 PPORT3 NELIE Q75 MXE V378 NUGGY TRISH3 B752 1h 29m

Route Details

Aircraft Information
Primary: Boeing 737-800BCF
Backup: Boeing 757-200SF
Route Data
Distance: 327nm
Duration: 1h 12m
Recm'd Route: PPORT3 NELIE Q75 MXE V378 NUGGY TRISH3
Origin Wx: KMHT 020553Z 20004KT 10SM SCT065 18/16 A2981 RMK AO2 RAE10 SLP104 P0000 60002 T01830156 10222 20183 58009
Dest. Wx: KBWI 020554Z 29005KT 10SM CLR 18/16 A2990 RMK AO2 SLP125 60054 T01780161 10233 20178 51002
Notes: